createdAt,value
2023-04-22T00:00:36.532Z,8.44
2023-04-22T00:03:04.122Z,8.45
2023-04-22T00:05:31.575Z,8.43
2023-04-22T00:07:58.532Z,8.53
2023-04-22T00:10:25.699Z,8.57
2023-04-22T00:12:52.720Z,8.63
2023-04-22T00:15:21.674Z,8.73
2023-04-22T00:17:49.156Z,8.71
2023-04-22T00:20:16.428Z,8.69
2023-04-22T00:22:43.352Z,8.67
2023-04-22T00:25:10.270Z,8.69
2023-04-22T00:27:37.753Z,8.73
2023-04-22T00:30:05.756Z,8.76
2023-04-22T00:32:34.039Z,8.80
2023-04-22T00:35:00.905Z,8.80
2023-04-22T00:37:28.311Z,8.87
2023-04-22T00:39:55.345Z,8.86
2023-04-22T00:42:22.410Z,8.91
2023-04-22T00:44:51.437Z,8.95
2023-04-22T00:47:19.209Z,9.01
2023-04-22T00:49:49.409Z,9.12
2023-04-22T00:52:16.412Z,9.17
2023-04-22T00:54:43.385Z,9.14
2023-04-22T00:57:10.314Z,9.07
2023-04-22T00:59:37.338Z,8.94
2023-04-22T01:02:04.875Z,9.00
2023-04-22T01:04:31.941Z,8.95
2023-04-22T01:07:01.734Z,8.96
2023-04-22T01:09:29.042Z,9.05
2023-04-22T01:11:56.373Z,9.01
2023-04-22T01:14:23.696Z,8.96
2023-04-22T01:16:51.406Z,9.03
2023-04-22T01:19:18.561Z,9.02
2023-04-22T01:21:47.084Z,8.86
2023-04-22T01:24:15.445Z,8.91
2023-04-22T01:26:42.477Z,8.94
2023-04-22T01:29:09.416Z,8.87
2023-04-22T01:31:36.479Z,8.86
2023-04-22T01:34:03.534Z,8.92
2023-04-22T01:36:32.813Z,8.91
2023-04-22T01:39:00.108Z,8.91
2023-04-22T01:41:28.436Z,8.93
2023-04-22T01:43:58.231Z,8.96
2023-04-22T01:46:25.303Z,8.99
2023-04-22T01:48:52.438Z,8.98
2023-04-22T01:51:23.820Z,8.99
2023-04-22T01:53:51.485Z,9.07
2023-04-22T01:56:18.856Z,9.04
2023-04-22T01:58:47.211Z,9.11
2023-04-22T02:01:14.286Z,9.17
2023-04-22T02:03:42.852Z,9.14
2023-04-22T02:06:09.909Z,9.13
2023-04-22T02:08:36.971Z,9.29
2023-04-22T02:11:04.059Z,9.32
2023-04-22T02:13:35.601Z,9.35
2023-04-22T02:16:05.090Z,9.32
2023-04-22T02:18:32.310Z,9.36
2023-04-22T02:20:59.361Z,9.43
2023-04-22T02:23:27.631Z,9.47
2023-04-22T02:25:56.058Z,9.51
2023-04-22T02:28:23.153Z,9.53
2023-04-22T02:30:50.134Z,9.52
2023-04-22T02:33:18.452Z,9.52
2023-04-22T02:35:45.850Z,9.52
2023-04-22T02:38:12.696Z,9.55
2023-04-22T02:40:39.738Z,9.53
2023-04-22T02:43:07.889Z,9.60
2023-04-22T02:45:34.860Z,9.64
2023-04-22T02:48:01.937Z,9.58
2023-04-22T02:50:30.251Z,9.65
2023-04-22T02:52:57.225Z,9.64
2023-04-22T02:55:25.014Z,9.63
2023-04-22T02:57:52.868Z,9.68
2023-04-22T03:00:20.050Z,9.75
2023-04-22T03:02:47.108Z,9.76
2023-04-22T03:05:14.665Z,9.79
2023-04-22T03:07:43.248Z,9.82
2023-04-22T03:10:10.477Z,9.76
2023-04-22T03:12:37.373Z,9.76
2023-04-22T03:15:05.212Z,9.79
2023-04-22T03:17:32.199Z,9.76
2023-04-22T03:19:59.299Z,9.74
2023-04-22T03:22:26.312Z,9.70
2023-04-22T03:24:54.580Z,9.73
2023-04-22T03:27:21.606Z,9.76
2023-04-22T03:29:48.560Z,9.74
2023-04-22T03:32:15.880Z,9.73
2023-04-22T03:34:43.346Z,9.77
2023-04-22T03:37:10.533Z,9.74
2023-04-22T03:39:37.941Z,9.72
2023-04-22T03:42:06.597Z,9.73
2023-04-22T03:44:33.555Z,9.65
2023-04-22T03:47:00.907Z,9.64
2023-04-22T03:49:28.568Z,9.59
2023-04-22T03:51:56.283Z,9.58
2023-04-22T03:54:24.718Z,9.46
2023-04-22T03:56:51.836Z,9.54
2023-04-22T03:59:20.500Z,9.51
2023-04-22T04:01:47.737Z,9.49
2023-04-22T04:04:15.100Z,9.42
2023-04-22T04:06:42.238Z,9.42
2023-04-22T04:09:09.809Z,9.40
2023-04-22T04:11:36.761Z,9.47
2023-04-22T04:14:03.733Z,9.51
2023-04-22T04:16:33.455Z,9.50
2023-04-22T04:19:00.754Z,9.44
2023-04-22T04:21:27.679Z,9.43
2023-04-22T04:23:54.549Z,9.45
2023-04-22T04:26:21.508Z,9.33
2023-04-22T04:28:49.370Z,9.40
2023-04-22T04:31:16.721Z,9.38
2023-04-22T04:33:46.704Z,9.40
2023-04-22T04:36:13.808Z,9.45
2023-04-22T04:38:40.754Z,9.47
2023-04-22T04:41:09.757Z,9.44
2023-04-22T04:43:36.842Z,9.39
2023-04-22T04:46:03.881Z,9.47
2023-04-22T04:48:30.864Z,9.44
2023-04-22T04:50:59.472Z,9.44
2023-04-22T04:53:26.420Z,9.51
2023-04-22T04:55:53.614Z,9.38
2023-04-22T04:58:20.679Z,9.45
2023-04-22T05:00:49.234Z,9.42
2023-04-22T05:03:16.587Z,9.48
2023-04-22T05:05:43.894Z,9.44
2023-04-22T05:08:12.487Z,9.44
2023-04-22T05:10:39.695Z,9.51
2023-04-22T05:13:06.701Z,9.49
2023-04-22T05:15:33.981Z,9.37
2023-04-22T05:18:01.403Z,9.52
2023-04-22T05:20:28.822Z,9.54
2023-04-22T05:22:56.248Z,9.68
2023-04-22T05:25:24.551Z,9.73
2023-04-22T05:27:52.052Z,9.70
2023-04-22T05:30:19.306Z,9.71
2023-04-22T05:32:47.719Z,9.71
2023-04-22T05:35:14.801Z,9.80
2023-04-22T05:37:41.798Z,9.73
2023-04-22T05:40:11.431Z,9.82
2023-04-22T05:42:42.227Z,9.94
2023-04-22T05:45:10.085Z,10.04
2023-04-22T05:47:37.157Z,10.08
2023-04-22T05:50:04.724Z,10.26
2023-04-22T05:52:31.638Z,10.34
2023-04-22T05:54:58.503Z,10.32
2023-04-22T05:57:26.121Z,10.59
2023-04-22T05:59:56.411Z,10.68
2023-04-22T06:02:23.585Z,10.77
2023-04-22T06:04:51.966Z,10.81
2023-04-22T06:07:19.484Z,10.87
2023-04-22T06:09:46.416Z,10.91
2023-04-22T06:12:14.372Z,11.04
2023-04-22T06:14:41.689Z,11.07
2023-04-22T06:17:10.070Z,11.09
2023-04-22T06:19:37.789Z,11.18
2023-04-22T06:22:04.824Z,11.05
2023-04-22T06:24:31.723Z,11.24
2023-04-22T06:26:59.039Z,11.10
2023-04-22T06:29:25.956Z,11.14
2023-04-22T06:31:54.399Z,11.06
2023-04-22T06:34:22.711Z,10.85
2023-04-22T06:36:49.816Z,10.50
2023-04-22T06:39:16.695Z,10.93
2023-04-22T06:41:44.654Z,11.36
2023-04-22T06:44:11.500Z,11.56
2023-04-22T06:46:39.146Z,11.64
2023-04-22T06:49:06.391Z,11.70
2023-04-22T06:51:34.835Z,11.81
2023-04-22T06:54:01.812Z,11.76
2023-04-22T06:56:28.625Z,11.79
2023-04-22T06:58:55.699Z,12.12
2023-04-22T07:01:22.583Z,12.27
2023-04-22T07:03:49.583Z,12.32
2023-04-22T07:06:16.633Z,12.24
2023-04-22T07:08:44.943Z,12.43
2023-04-22T07:11:13.955Z,12.40
2023-04-22T07:13:41.328Z,12.67
2023-04-22T07:16:08.383Z,13.02
2023-04-22T07:18:35.939Z,13.20
2023-04-22T07:21:02.918Z,13.20
2023-04-22T07:23:29.822Z,13.16
2023-04-22T07:25:58.040Z,12.75
2023-04-22T07:28:25.144Z,12.87
2023-04-22T07:30:51.913Z,12.88
2023-04-22T07:33:18.795Z,12.92
2023-04-22T07:35:45.879Z,13.16
2023-04-22T07:38:14.515Z,13.27
2023-04-22T07:40:41.600Z,13.66
2023-04-22T07:43:09.868Z,13.90
2023-04-22T07:45:36.862Z,13.77
2023-04-22T07:48:04.903Z,13.68
2023-04-22T07:50:32.015Z,13.64
2023-04-22T07:52:58.891Z,13.28
2023-04-22T07:55:25.823Z,13.74
2023-04-22T07:57:52.681Z,13.56
2023-04-22T08:00:20.952Z,13.64
2023-04-22T08:02:47.894Z,13.59
2023-04-22T08:05:14.985Z,13.63
2023-04-22T08:07:42.469Z,13.81
2023-04-22T08:10:10.188Z,14.00
2023-04-22T08:12:37.431Z,14.04
2023-04-22T08:15:05.090Z,14.04
2023-04-22T08:17:33.439Z,14.17
2023-04-22T08:20:00.491Z,14.23
2023-04-22T08:22:27.631Z,14.02
2023-04-22T08:24:54.453Z,13.93
2023-04-22T08:27:21.623Z,13.87
2023-04-22T08:29:48.601Z,13.88
2023-04-22T08:32:15.691Z,13.79
2023-04-22T08:34:44.107Z,13.83
2023-04-22T08:37:11.107Z,13.82
2023-04-22T08:39:38.191Z,13.83
2023-04-22T08:42:05.567Z,13.95
2023-04-22T08:44:32.728Z,13.98
2023-04-22T08:47:02.899Z,13.98
2023-04-22T08:49:30.875Z,13.93
2023-04-22T08:51:59.237Z,13.81
2023-04-22T08:54:26.610Z,13.90
2023-04-22T08:56:54.173Z,13.99
2023-04-22T08:59:23.085Z,13.93
2023-04-22T09:01:54.137Z,13.82
2023-04-22T09:04:21.246Z,13.89
2023-04-22T09:06:48.150Z,13.97
2023-04-22T09:09:17.381Z,13.85
2023-04-22T09:11:44.228Z,13.83
2023-04-22T09:14:11.149Z,13.84
2023-04-22T09:16:44.684Z,13.85
2023-04-22T09:19:12.226Z,13.95
2023-04-22T09:21:40.673Z,13.71
2023-04-22T09:24:09.060Z,13.77
2023-04-22T09:26:40.962Z,13.80
2023-04-22T09:29:11.169Z,13.66
2023-04-22T09:31:38.137Z,13.81
2023-04-22T09:34:05.276Z,13.83
2023-04-22T09:36:37.961Z,13.95
2023-04-22T09:39:09.928Z,13.99
2023-04-22T09:41:39.688Z,13.95
2023-04-22T09:44:10.296Z,13.57
2023-04-22T09:46:37.097Z,13.70
2023-04-22T09:49:03.979Z,13.59
2023-04-22T09:51:30.850Z,13.53
2023-04-22T09:53:59.429Z,13.70
2023-04-22T09:56:46.765Z,14.11
2023-04-22T09:59:13.824Z,14.52
2023-04-22T10:01:45.306Z,14.82
2023-04-22T10:04:15.133Z,14.73
2023-04-22T10:06:42.453Z,14.90
2023-04-22T10:09:09.865Z,15.10
2023-04-22T10:11:37.642Z,15.20
2023-04-22T10:14:05.979Z,15.34
2023-04-22T10:16:36.083Z,14.95
2023-04-22T10:19:06.572Z,14.97
2023-04-22T10:21:34.661Z,14.86
2023-04-22T10:24:01.551Z,14.60
2023-04-22T10:26:49.801Z,14.26
2023-04-22T10:29:19.582Z,14.44
2023-04-22T10:31:53.764Z,14.06
2023-04-22T10:34:20.592Z,14.07
2023-04-22T10:37:01.457Z,13.93
2023-04-22T10:39:29.420Z,13.90
2023-04-22T10:42:11.659Z,13.92
2023-04-22T10:44:53.698Z,13.95
2023-04-22T10:47:28.858Z,14.03
2023-04-22T10:50:24.046Z,14.16
2023-04-22T10:52:52.613Z,14.25
2023-04-22T10:55:20.263Z,14.46
2023-04-22T10:57:48.833Z,14.55
2023-04-22T11:00:52.475Z,14.53
2023-04-22T11:03:27.717Z,14.56
2023-04-22T11:06:09.474Z,14.51
2023-04-22T11:08:36.389Z,14.39
2023-04-22T11:11:09.824Z,14.50
2023-04-22T11:13:37.117Z,14.54
2023-04-22T11:16:08.447Z,14.54
2023-04-22T11:18:35.812Z,14.40
2023-04-22T11:21:06.446Z,14.25
2023-04-22T11:23:33.289Z,14.64
2023-04-22T11:26:01.643Z,15.12
2023-04-22T11:28:29.123Z,15.31
2023-04-22T11:31:04.012Z,15.33
2023-04-22T11:33:33.148Z,15.27
2023-04-22T11:36:00.178Z,15.37
2023-04-22T11:38:27.160Z,14.66
2023-04-22T11:40:56.416Z,14.45
2023-04-22T11:43:23.244Z,14.94
2023-04-22T11:45:50.172Z,15.13
2023-04-22T11:48:17.309Z,15.22
2023-04-22T11:50:45.867Z,15.29
2023-04-22T11:53:17.253Z,15.32
2023-04-22T11:55:46.547Z,14.55
2023-04-22T11:58:15.072Z,15.01
2023-04-22T12:00:44.034Z,15.05
2023-04-22T12:03:15.582Z,14.52
2023-04-22T12:05:44.069Z,14.96
2023-04-22T12:08:13.883Z,14.77
2023-04-22T12:10:42.650Z,14.93
2023-04-22T12:13:09.877Z,14.95
2023-04-22T12:15:41.579Z,14.97
2023-04-22T12:18:08.758Z,14.83
2023-04-22T12:20:36.380Z,14.87
2023-04-22T12:23:03.866Z,14.95
2023-04-22T12:25:33.956Z,15.19
2023-04-22T12:28:01.300Z,15.09
2023-04-22T12:30:28.245Z,14.91
2023-04-22T12:32:55.142Z,15.05
2023-04-22T12:35:22.333Z,15.14
2023-04-22T12:37:50.523Z,15.19
2023-04-22T12:40:17.499Z,15.03
2023-04-22T12:42:45.843Z,14.98
2023-04-22T12:45:12.720Z,14.96
2023-04-22T12:47:39.737Z,14.84
2023-04-22T12:50:07.589Z,14.80
2023-04-22T12:52:35.402Z,14.67
2023-04-22T12:55:02.520Z,14.49
2023-04-22T12:57:29.448Z,14.41
2023-04-22T12:59:58.162Z,14.26
2023-04-22T13:02:25.327Z,13.88
2023-04-22T13:04:52.300Z,14.04
2023-04-22T13:07:20.052Z,13.98
2023-04-22T13:09:47.052Z,14.00
2023-04-22T13:12:13.861Z,13.95
2023-04-22T13:14:40.771Z,13.98
2023-04-22T13:17:09.032Z,13.97
2023-04-22T13:19:36.051Z,13.16
2023-04-22T13:22:03.541Z,12.68
2023-04-22T13:24:30.444Z,13.33
2023-04-22T13:26:58.957Z,13.95
2023-04-22T13:29:26.456Z,14.28
2023-04-22T13:31:53.344Z,14.47
2023-04-22T13:34:21.737Z,14.65
2023-04-22T13:36:48.714Z,14.68
2023-04-22T13:39:16.177Z,14.93
2023-04-22T13:41:43.154Z,15.42
2023-04-22T13:44:11.272Z,15.72
2023-04-22T13:46:38.323Z,16.06
2023-04-22T13:49:05.646Z,16.01
2023-04-22T13:51:34.204Z,14.70
2023-04-22T13:54:01.419Z,15.24
2023-04-22T13:56:29.226Z,15.44
2023-04-22T13:58:58.073Z,15.89
2023-04-22T14:01:27.671Z,16.10
2023-04-22T14:03:55.056Z,16.34
2023-04-22T14:06:22.543Z,16.41
2023-04-22T14:08:50.879Z,16.45
2023-04-22T14:11:17.805Z,16.73
2023-04-22T14:13:45.275Z,16.95
2023-04-22T14:16:12.623Z,17.20
2023-04-22T14:18:40.307Z,17.41
2023-04-22T14:21:09.499Z,17.21
2023-04-22T14:23:36.695Z,17.70
2023-04-22T14:26:05.218Z,17.96
2023-04-22T14:28:32.665Z,17.85
2023-04-22T14:30:59.987Z,17.52
2023-04-22T14:33:27.702Z,17.38
2023-04-22T14:35:54.637Z,17.31
2023-04-22T14:38:22.064Z,17.05
2023-04-22T14:40:49.011Z,17.47
2023-04-22T14:43:18.763Z,16.53
2023-04-22T14:45:47.101Z,16.76
2023-04-22T14:48:14.163Z,16.44
2023-04-22T14:50:41.084Z,16.38
2023-04-22T14:53:08.195Z,17.00
2023-04-22T14:55:35.761Z,16.99
2023-04-22T14:58:02.598Z,16.69
2023-04-22T15:00:31.045Z,16.63
2023-04-22T15:02:58.466Z,16.94
2023-04-22T15:05:25.525Z,16.56
2023-04-22T15:07:52.402Z,16.54
2023-04-22T15:10:19.555Z,16.43
2023-04-22T15:12:46.490Z,16.12
2023-04-22T15:15:15.902Z,16.23
2023-04-22T15:17:45.450Z,16.43
2023-04-22T15:20:13.283Z,16.97
2023-04-22T15:22:43.704Z,17.18
2023-04-22T15:25:11.248Z,17.56
2023-04-22T15:27:38.749Z,17.54
2023-04-22T15:30:07.386Z,17.33
2023-04-22T15:32:35.124Z,17.61
2023-04-22T15:35:03.811Z,17.77
2023-04-22T15:37:30.810Z,17.86
2023-04-22T15:39:57.642Z,17.36
2023-04-22T15:42:24.529Z,17.39
2023-04-22T15:44:51.576Z,17.35
2023-04-22T15:47:18.451Z,17.31
2023-04-22T15:49:45.473Z,17.20
2023-04-22T15:52:13.876Z,17.09
2023-04-22T15:54:40.750Z,17.17
2023-04-22T15:57:07.590Z,16.70
2023-04-22T15:59:34.430Z,16.94
2023-04-22T16:02:01.479Z,17.16
2023-04-22T16:04:29.182Z,17.21
2023-04-22T16:06:57.501Z,17.31
2023-04-22T16:09:26.197Z,17.10
2023-04-22T16:11:53.629Z,17.03
2023-04-22T16:14:20.731Z,17.09
2023-04-22T16:16:47.869Z,16.90
2023-04-22T16:19:14.844Z,17.03
2023-04-22T16:21:41.673Z,16.87
2023-04-22T16:24:08.609Z,17.03
2023-04-22T16:26:36.900Z,17.19
2023-04-22T16:29:04.266Z,17.24
2023-04-22T16:31:31.153Z,17.08
2023-04-22T16:33:59.168Z,17.09
2023-04-22T16:36:26.454Z,17.22
2023-04-22T16:38:53.304Z,17.44
2023-04-22T16:41:20.691Z,17.34
2023-04-22T16:43:48.861Z,17.29
2023-04-22T16:46:15.696Z,17.15
2023-04-22T16:48:42.648Z,16.95
2023-04-22T16:51:09.465Z,17.31
2023-04-22T16:53:36.366Z,17.34
2023-04-22T16:56:03.258Z,17.43
2023-04-22T16:58:30.203Z,17.56
2023-04-22T17:00:58.475Z,17.49
2023-04-22T17:03:26.142Z,17.45
2023-04-22T17:05:57.998Z,17.60
2023-04-22T17:09:07.536Z,17.55
2023-04-22T17:12:33.524Z,17.67
2023-04-22T17:15:17.746Z,17.31
2023-04-22T17:17:45.851Z,17.31
2023-04-22T17:20:12.812Z,17.29
2023-04-22T17:22:39.633Z,17.21
2023-04-22T17:25:07.347Z,17.30
2023-04-22T17:27:34.220Z,17.02
2023-04-22T17:30:01.331Z,17.20
2023-04-22T17:32:28.279Z,17.03
2023-04-22T17:34:56.661Z,17.08
2023-04-22T17:37:23.594Z,17.08
2023-04-22T17:39:50.474Z,17.06
2023-04-22T17:42:18.044Z,16.62
2023-04-22T17:44:44.921Z,16.77
2023-04-22T17:47:11.778Z,16.81
2023-04-22T17:49:38.935Z,16.96
2023-04-22T17:52:07.448Z,16.74
2023-04-22T17:54:34.459Z,16.72
2023-04-22T17:57:02.173Z,16.66
2023-04-22T17:59:29.087Z,16.46
2023-04-22T18:01:56.035Z,15.91
2023-04-22T18:04:22.972Z,16.08
2023-04-22T18:06:49.844Z,16.07
2023-04-22T18:09:18.076Z,15.95
2023-04-22T18:11:44.977Z,15.77
2023-04-22T18:14:11.967Z,15.56
2023-04-22T18:16:38.853Z,15.72
2023-04-22T18:19:06.924Z,15.62
2023-04-22T18:21:33.940Z,15.62
2023-04-22T18:24:02.666Z,15.34
2023-04-22T18:26:30.907Z,15.30
2023-04-22T18:28:57.880Z,15.02
2023-04-22T18:31:25.064Z,14.85
2023-04-22T18:33:51.915Z,14.79
2023-04-22T18:36:18.861Z,14.81
2023-04-22T18:38:45.721Z,14.66
2023-04-22T18:41:16.466Z,14.46
2023-04-22T18:43:47.155Z,14.55
2023-04-22T18:46:14.004Z,14.29
2023-04-22T18:48:41.034Z,14.31
2023-04-22T18:51:08.316Z,14.35
2023-04-22T18:53:35.496Z,14.28
2023-04-22T18:56:02.344Z,14.30
2023-04-22T18:58:29.212Z,14.11
2023-04-22T19:00:57.540Z,14.26
2023-04-22T19:03:24.660Z,14.15
2023-04-22T19:05:51.779Z,14.17
2023-04-22T19:08:18.647Z,14.19
2023-04-22T19:10:45.708Z,14.02
2023-04-22T19:13:22.276Z,14.06
2023-04-22T19:15:55.323Z,14.13
2023-04-22T19:18:23.594Z,14.01
2023-04-22T19:20:50.777Z,13.94
2023-04-22T19:23:17.692Z,13.95
2023-04-22T19:25:44.631Z,13.98
2023-04-22T19:28:11.533Z,13.84
2023-04-22T19:30:38.397Z,13.79
2023-04-22T19:33:05.534Z,13.68
2023-04-22T19:35:33.933Z,13.69
2023-04-22T19:38:01.508Z,13.74
2023-04-22T19:40:29.259Z,13.64
2023-04-22T19:42:58.545Z,13.80
2023-04-22T19:45:25.452Z,13.72
2023-04-22T19:47:52.961Z,13.67
2023-04-22T19:50:20.400Z,13.64
2023-04-22T19:52:50.939Z,13.48
2023-04-22T19:55:18.913Z,13.39
2023-04-22T19:57:46.460Z,13.48
2023-04-22T20:00:14.316Z,13.58
2023-04-22T20:02:41.916Z,13.48
2023-04-22T20:05:10.450Z,13.29
2023-04-22T20:07:38.307Z,13.40
2023-04-22T20:10:08.568Z,13.35
2023-04-22T20:12:35.812Z,13.19
2023-04-22T20:15:03.449Z,13.30
2023-04-22T20:17:31.316Z,13.14
2023-04-22T20:19:58.521Z,13.34
2023-04-22T20:22:26.319Z,13.26
2023-04-22T20:25:02.200Z,13.40
2023-04-22T20:27:31.211Z,13.22
2023-04-22T20:29:58.638Z,13.38
2023-04-22T20:32:26.364Z,13.16
2023-04-22T20:34:54.250Z,13.08
2023-04-22T20:37:22.260Z,13.25
2023-04-22T20:39:52.663Z,12.96
2023-04-22T20:42:20.302Z,13.05
2023-04-22T20:44:48.646Z,12.97
2023-04-22T20:47:16.633Z,12.89
2023-04-22T20:49:43.901Z,12.90
2023-04-22T20:52:11.469Z,12.68
2023-04-22T20:54:39.548Z,12.78
2023-04-22T20:57:07.337Z,12.89
2023-04-22T20:59:34.836Z,12.76
2023-04-22T21:02:06.895Z,12.79
2023-04-22T21:04:34.845Z,12.77
2023-04-22T21:07:11.821Z,12.80
2023-04-22T21:09:39.081Z,12.89
2023-04-22T21:12:06.843Z,12.80
2023-04-22T21:14:34.142Z,12.79
2023-04-22T21:17:05.429Z,12.73
2023-04-22T21:19:33.917Z,12.79
2023-04-22T21:22:07.369Z,12.74
2023-04-22T21:24:37.932Z,12.80
2023-04-22T21:27:05.989Z,12.67
2023-04-22T21:29:33.318Z,12.55
2023-04-22T21:32:08.819Z,12.56
2023-04-22T21:34:38.050Z,12.71
2023-04-22T21:37:06.251Z,12.67
2023-04-22T21:39:33.160Z,12.69
2023-04-22T21:42:00.580Z,12.62
2023-04-22T21:44:27.382Z,12.52
2023-04-22T21:46:54.213Z,12.42
2023-04-22T21:49:23.001Z,12.40
2023-04-22T21:51:51.381Z,12.46
2023-04-22T21:54:18.322Z,12.45
2023-04-22T21:56:45.377Z,12.50
2023-04-22T21:59:12.235Z,12.38
2023-04-22T22:01:39.134Z,12.43
2023-04-22T22:04:05.975Z,12.37
2023-04-22T22:06:33.345Z,12.61
2023-04-22T22:09:01.518Z,12.53
2023-04-22T22:11:31.225Z,12.60
2023-04-22T22:13:58.684Z,12.46
2023-04-22T22:16:25.908Z,12.79
2023-04-22T22:18:52.899Z,12.62
2023-04-22T22:21:19.731Z,12.62
2023-04-22T22:23:46.580Z,12.62
2023-04-22T22:26:14.856Z,12.64
2023-04-22T22:28:41.756Z,12.50
2023-04-22T22:31:08.601Z,12.56
2023-04-22T22:33:35.578Z,12.56
2023-04-22T22:36:02.693Z,12.51
2023-04-22T22:38:29.545Z,12.56
2023-04-22T22:40:56.326Z,12.66
2023-04-22T22:43:24.603Z,12.67
2023-04-22T22:45:51.511Z,12.73
2023-04-22T22:48:18.521Z,12.77
2023-04-22T22:50:46.564Z,12.62
2023-04-22T22:53:13.522Z,12.58
2023-04-22T22:55:40.395Z,12.67
2023-04-22T22:58:07.282Z,12.58
2023-04-22T23:00:35.789Z,12.39
2023-04-22T23:03:03.364Z,12.71
2023-04-22T23:05:30.537Z,12.63
2023-04-22T23:07:57.400Z,12.64
2023-04-22T23:10:24.248Z,12.58
2023-04-22T23:12:51.106Z,12.76
2023-04-22T23:15:17.935Z,12.52
2023-04-22T23:17:46.334Z,12.07
2023-04-22T23:20:14.186Z,12.24
2023-04-22T23:22:42.855Z,12.44
2023-04-22T23:25:11.293Z,12.43
2023-04-22T23:27:38.643Z,12.50
2023-04-22T23:30:07.314Z,12.37
2023-04-22T23:32:35.747Z,12.22
2023-04-22T23:35:04.909Z,12.33
2023-04-22T23:37:31.898Z,12.39
2023-04-22T23:39:58.814Z,12.20
2023-04-22T23:42:25.914Z,12.25
2023-04-22T23:44:52.876Z,12.15
2023-04-22T23:47:19.896Z,12.04
2023-04-22T23:49:46.769Z,12.08
2023-04-22T23:52:14.993Z,12.16
2023-04-22T23:54:44.626Z,11.94
2023-04-22T23:57:12.189Z,12.00
2023-04-22T23:59:39.809Z,12.18
